Time;durP1;ratioP1;P1;durP2;ratioP2;P2;SDS_P1;SDS_P2;PMS_P1;PMS_P2;Temp;Humidity;BMP_temperature;BMP_pressure;BME280_temperature;BME280_humidity;BME280_pressure;Samples;Min_cycle;Max_cycle;Signal;HPM_P1;HPM_P2
2023/07/14 00:00:21;;;;;;;35.53;23.40;;;;;;;;;;4989880;28;20056;-61
2023/07/14 00:02:49;;;;;;;40.03;23.97;;;;;;;;;;4989539;28;20050;-61
2023/07/14 00:05:19;;;;;;;32.00;22.53;;;;;;;;;;4990504;28;20049;-61
2023/07/14 00:07:46;;;;;;;31.90;21.60;;;;;;;;;;4992999;28;20049;-60
2023/07/14 00:10:22;;;;;;;36.10;24.97;;;;;;;;;;4993773;28;20085;-61
2023/07/14 00:12:49;;;;;;;31.77;21.90;;;;;;;;;;4993828;28;20390;-61
2023/07/14 00:15:16;;;;;;;36.97;23.37;;;;;;;;;;4993517;28;20093;-60
2023/07/14 00:17:43;;;;;;;34.27;23.47;;;;;;;;;;4993620;28;20128;-61
2023/07/14 00:20:16;;;;;;;46.67;25.87;;;;;;;;;;4992706;28;20046;-61
2023/07/14 00:22:43;;;;;;;35.97;23.70;;;;;;;;;;4993017;28;20076;-60
2023/07/14 00:25:12;;;;;;;36.53;24.23;;;;;;;;;;4993320;28;20050;-61
2023/07/14 00:27:38;;;;;;;29.70;20.23;;;;;;;;;;4992338;28;20050;-61
2023/07/14 00:30:13;;;;;;;32.33;21.80;;;;;;;;;;4992985;28;20042;-61
2023/07/14 00:32:39;;;;;;;33.13;21.83;;;;;;;;;;4993276;28;20046;-61
2023/07/14 00:35:21;;;;;;;29.57;20.37;;;;;;;;;;4983413;28;20052;-61
2023/07/14 00:37:48;;;;;;;32.07;20.33;;;;;;;;;;4992935;28;20077;-61
2023/07/14 00:40:22;;;;;;;34.40;21.93;;;;;;;;;;4992520;28;20129;-61
2023/07/14 00:42:51;;;;;;;30.73;18.83;;;;;;;;;;4992396;28;20125;-61
2023/07/14 00:45:19;;;;;;;33.00;19.53;;;;;;;;;;4992346;28;20500;-61
2023/07/14 00:47:52;;;;;;;33.07;18.63;;;;;;;;;;4991969;28;20054;-61
2023/07/14 00:50:22;;;;;;;30.13;18.13;;;;;;;;;;4989937;28;20058;-61
2023/07/14 00:52:48;;;;;;;33.67;19.03;;;;;;;;;;4992691;28;20489;-60
2023/07/14 00:55:24;;;;;;;30.20;19.23;;;;;;;;;;4992675;28;20058;-61
2023/07/14 00:57:52;;;;;;;28.83;19.63;;;;;;;;;;4992572;28;20595;-61
2023/07/14 01:00:26;;;;;;;31.97;20.83;;;;;;;;;;4991140;28;20402;-61
2023/07/14 01:02:52;;;;;;;39.53;22.93;;;;;;;;;;4992717;28;20454;-61
2023/07/14 01:05:18;;;;;;;28.27;18.90;;;;;;;;;;4991493;28;20548;-60
2023/07/14 01:07:45;;;;;;;29.10;17.57;;;;;;;;;;4992785;28;20101;-60
2023/07/14 01:10:13;;;;;;;26.73;16.90;;;;;;;;;;4992563;28;20081;-61
2023/07/14 01:12:41;;;;;;;26.43;15.73;;;;;;;;;;4992384;28;20612;-60
2023/07/14 01:15:08;;;;;;;33.27;15.80;;;;;;;;;;4991953;28;20572;-60
2023/07/14 01:17:36;;;;;;;28.97;17.73;;;;;;;;;;4991050;28;20452;-61
2023/07/14 01:20:11;;;;;;;33.70;17.77;;;;;;;;;;4992337;28;20051;-61
2023/07/14 01:22:59;;;;;;;24.37;15.53;;;;;;;;;;4992155;28;20455;-60
2023/07/14 01:25:37;;;;;;;27.00;14.77;;;;;;;;;;4991659;28;20043;-61
2023/07/14 01:28:05;;;;;;;30.93;19.00;;;;;;;;;;4992414;28;20053;-61
2023/07/14 01:30:32;;;;;;;24.10;16.40;;;;;;;;;;4991014;28;20038;-61
2023/07/14 01:32:58;;;;;;;24.23;16.13;;;;;;;;;;4991874;28;20416;-61
2023/07/14 01:35:29;;;;;;;31.73;17.53;;;;;;;;;;4992086;28;20046;-61
2023/07/14 01:37:55;;;;;;;28.07;17.43;;;;;;;;;;4974503;28;20508;-61
2023/07/14 01:40:21;;;;;;;28.23;17.40;;;;;;;;;;4991821;28;20046;-61
2023/07/14 01:42:53;;;;;;;25.87;15.97;;;;;;;;;;4991656;28;20132;-61
2023/07/14 01:45:20;;;;;;;29.20;18.67;;;;;;;;;;4991604;28;20097;-61
2023/07/14 01:47:48;;;;;;;34.23;18.47;;;;;;;;;;4991653;28;20046;-60
2023/07/14 01:50:17;;;;;;;28.43;17.97;;;;;;;;;;4991942;28;20046;-61
2023/07/14 01:52:43;;;;;;;25.93;17.17;;;;;;;;;;4991474;28;20046;-61
2023/07/14 01:55:14;;;;;;;34.37;20.80;;;;;;;;;;4990671;28;20058;-61
2023/07/14 01:57:42;;;;;;;24.20;16.57;;;;;;;;;;4991694;28;20135;-61
2023/07/14 02:00:11;;;;;;;29.83;17.63;;;;;;;;;;4991428;28;20050;-60
2023/07/14 02:02:39;;;;;;;27.23;16.97;;;;;;;;;;4991530;28;20092;-60
2023/07/14 02:05:14;;;;;;;24.37;16.60;;;;;;;;;;4990851;28;20034;-61
2023/07/14 02:07:40;;;;;;;28.07;17.37;;;;;;;;;;4990718;28;20049;-61
2023/07/14 02:10:12;;;;;;;27.07;16.80;;;;;;;;;;4991317;28;20058;-61
2023/07/14 02:12:46;;;;;;;28.13;17.53;;;;;;;;;;4991591;28;20058;-61
2023/07/14 02:15:14;;;;;;;25.80;17.87;;;;;;;;;;4991491;28;20043;-60
2023/07/14 02:17:40;;;;;;;24.70;16.70;;;;;;;;;;4990706;28;20816;-61
2023/07/14 02:20:10;;;;;;;26.77;16.83;;;;;;;;;;5006807;28;20053;-61
2023/07/14 02:22:37;;;;;;;24.70;16.13;;;;;;;;;;5004167;28;20054;-61
2023/07/14 02:25:04;;;;;;;31.73;19.13;;;;;;;;;;4990880;28;20054;-61
2023/07/14 02:27:30;;;;;;;26.17;16.93;;;;;;;;;;4991039;28;20085;-61
2023/07/14 02:29:59;;;;;;;27.33;18.47;;;;;;;;;;4989495;28;20077;-61
2023/07/14 02:32:28;;;;;;;25.33;14.57;;;;;;;;;;4989971;28;20046;-61
2023/07/14 02:35:01;;;;;;;31.20;18.90;;;;;;;;;;4990316;28;20105;-61
2023/07/14 02:37:41;;;;;;;32.53;18.20;;;;;;;;;;4990653;28;20046;-60
2023/07/14 02:40:08;;;;;;;25.07;15.40;;;;;;;;;;4989363;28;20051;-61
2023/07/14 02:42:38;;;;;;;25.90;16.70;;;;;;;;;;4989719;28;20046;-60
2023/07/14 02:45:04;;;;;;;28.30;16.93;;;;;;;;;;4991022;28;20046;-61
2023/07/14 02:47:31;;;;;;;22.50;15.83;;;;;;;;;;4990678;28;20042;-61
2023/07/14 02:49:57;;;;;;;23.47;15.47;;;;;;;;;;4990326;28;20049;-61
2023/07/14 02:52:23;;;;;;;25.00;15.10;;;;;;;;;;4990328;28;20125;-60
2023/07/14 02:54:48;;;;;;;23.97;16.13;;;;;;;;;;4990549;28;20050;-60
2023/07/14 02:57:14;;;;;;;26.40;16.33;;;;;;;;;;4990599;28;20153;-61
2023/07/14 02:59:40;;;;;;;22.90;16.37;;;;;;;;;;4990559;28;20050;-60
2023/07/14 03:02:06;;;;;;;29.43;16.40;;;;;;;;;;4988723;28;20058;-60
2023/07/14 03:04:34;;;;;;;23.83;15.93;;;;;;;;;;4989661;28;20042;-61
2023/07/14 03:07:00;;;;;;;22.23;14.60;;;;;;;;;;4990307;28;20444;-61
2023/07/14 03:09:26;;;;;;;34.50;15.20;;;;;;;;;;4990424;28;20450;-61
2023/07/14 03:11:52;;;;;;;24.07;15.70;;;;;;;;;;4989783;28;20042;-60
2023/07/14 03:14:18;;;;;;;21.60;14.90;;;;;;;;;;4990326;28;20579;-61
2023/07/14 03:16:44;;;;;;;25.00;14.70;;;;;;;;;;4990292;28;20158;-61
2023/07/14 03:19:10;;;;;;;31.07;15.77;;;;;;;;;;4990237;28;20140;-60
2023/07/14 03:21:36;;;;;;;22.60;14.53;;;;;;;;;;4989467;28;20169;-61
2023/07/14 03:24:02;;;;;;;25.87;15.13;;;;;;;;;;4989429;28;20046;-61
2023/07/14 03:26:28;;;;;;;25.33;16.07;;;;;;;;;;4989999;28;20072;-61
2023/07/14 03:28:54;;;;;;;26.90;16.27;;;;;;;;;;4990027;28;20500;-61
2023/07/14 03:31:20;;;;;;;24.37;15.23;;;;;;;;;;4989835;28;20046;-60
2023/07/14 03:33:46;;;;;;;28.37;16.23;;;;;;;;;;4989172;28;20053;-60
2023/07/14 03:36:13;;;;;;;24.63;15.60;;;;;;;;;;4989328;28;20078;-61
2023/07/14 03:38:43;;;;;;;28.17;16.80;;;;;;;;;;4985235;28;20082;-60
2023/07/14 03:41:10;;;;;;;25.37;15.63;;;;;;;;;;4989213;28;20416;-61
2023/07/14 03:43:36;;;;;;;27.83;17.60;;;;;;;;;;4989133;28;20046;-61
2023/07/14 03:46:02;;;;;;;28.83;17.60;;;;;;;;;;4987784;28;20105;-61
2023/07/14 03:48:28;;;;;;;25.53;17.03;;;;;;;;;;4989472;28;20049;-61
2023/07/14 03:50:59;;;;;;;27.13;18.40;;;;;;;;;;4989593;28;20042;-60
2023/07/14 03:53:25;;;;;;;29.97;16.93;;;;;;;;;;4988994;28;20053;-61
2023/07/14 03:55:51;;;;;;;22.60;16.10;;;;;;;;;;4989530;28;20420;-61
2023/07/14 03:58:17;;;;;;;22.83;16.40;;;;;;;;;;4989510;28;20038;-61
2023/07/14 04:00:43;;;;;;;23.93;16.97;;;;;;;;;;4989100;28;20047;-61
2023/07/14 04:03:09;;;;;;;25.60;17.83;;;;;;;;;;4989232;28;20043;-61
2023/07/14 04:05:35;;;;;;;29.43;17.80;;;;;;;;;;4989145;28;20145;-61
2023/07/14 04:08:03;;;;;;;25.63;16.97;;;;;;;;;;4989062;28;20441;-61
2023/07/14 04:10:29;;;;;;;28.10;17.77;;;;;;;;;;4989642;28;20046;-61
2023/07/14 04:12:59;;;;;;;25.30;16.87;;;;;;;;;;4989513;28;20121;-61
2023/07/14 04:15:25;;;;;;;29.37;17.50;;;;;;;;;;4989028;28;20133;-60
2023/07/14 04:17:51;;;;;;;27.20;17.70;;;;;;;;;;4988603;28;20410;-61
2023/07/14 04:20:17;;;;;;;27.07;16.90;;;;;;;;;;4988627;28;20146;-61
2023/07/14 04:22:43;;;;;;;28.27;16.83;;;;;;;;;;4988905;28;20058;-60
2023/07/14 04:25:09;;;;;;;27.23;16.77;;;;;;;;;;5008716;28;20042;-61
2023/07/14 04:27:36;;;;;;;26.27;15.93;;;;;;;;;;5008880;28;20497;-61
2023/07/14 04:30:03;;;;;;;25.30;17.30;;;;;;;;;;4996531;28;20077;-61
2023/07/14 04:32:29;;;;;;;22.50;14.47;;;;;;;;;;4988490;28;20043;-61
2023/07/14 04:34:55;;;;;;;19.63;14.03;;;;;;;;;;4989312;28;20069;-61
2023/07/14 04:37:21;;;;;;;22.77;15.27;;;;;;;;;;4989254;28;20043;-61
2023/07/14 04:39:47;;;;;;;21.27;15.60;;;;;;;;;;4988927;28;20085;-61
2023/07/14 04:42:13;;;;;;;20.63;15.13;;;;;;;;;;4989044;28;20078;-61
2023/07/14 04:44:39;;;;;;;22.67;15.07;;;;;;;;;;4988945;28;20516;-61
2023/07/14 04:47:06;;;;;;;24.90;16.33;;;;;;;;;;4971361;28;20523;-61
2023/07/14 04:49:32;;;;;;;21.80;16.03;;;;;;;;;;4989015;28;20276;-61
2023/07/14 04:51:58;;;;;;;24.60;17.60;;;;;;;;;;4990898;28;20047;-61
2023/07/14 04:54:24;;;;;;;22.30;15.50;;;;;;;;;;4991686;28;20062;-61
2023/07/14 04:56:50;;;;;;;22.23;15.83;;;;;;;;;;4987941;28;20050;-62
2023/07/14 04:59:18;;;;;;;20.43;15.57;;;;;;;;;;4989856;28;20046;-61
2023/07/14 05:01:44;;;;;;;24.63;16.70;;;;;;;;;;4992601;28;20074;-61
2023/07/14 05:04:10;;;;;;;23.43;16.43;;;;;;;;;;4992264;28;20100;-61
2023/07/14 05:06:36;;;;;;;23.00;17.13;;;;;;;;;;4992000;28;20436;-61
2023/07/14 05:09:02;;;;;;;24.77;15.57;;;;;;;;;;4992414;28;20065;-61
2023/07/14 05:11:28;;;;;;;16.47;14.00;;;;;;;;;;4992552;28;20046;-61
2023/07/14 05:13:55;;;;;;;22.70;15.53;;;;;;;;;;4992191;28;20488;-61
2023/07/14 05:16:21;;;;;;;22.63;15.70;;;;;;;;;;4991854;28;20504;-61
2023/07/14 05:18:47;;;;;;;18.80;15.17;;;;;;;;;;4992391;28;20046;-61
2023/07/14 05:21:13;;;;;;;21.27;15.67;;;;;;;;;;4990715;28;20097;-61
2023/07/14 05:23:39;;;;;;;23.43;15.23;;;;;;;;;;4991395;28;20348;-61
2023/07/14 05:26:05;;;;;;;23.07;15.40;;;;;;;;;;4991376;28;20100;-61
2023/07/14 05:28:31;;;;;;;19.00;13.87;;;;;;;;;;4990035;28;20475;-61
2023/07/14 05:30:58;;;;;;;21.53;14.17;;;;;;;;;;4990878;28;20050;-61
2023/07/14 05:33:24;;;;;;;17.00;13.23;;;;;;;;;;4991152;28;20613;-62
2023/07/14 05:35:50;;;;;;;19.33;14.33;;;;;;;;;;4991156;28;20161;-61
2023/07/14 05:38:16;;;;;;;20.73;14.10;;;;;;;;;;4991157;28;20488;-61
2023/07/14 05:40:42;;;;;;;19.57;12.90;;;;;;;;;;4991372;28;20052;-61
2023/07/14 05:43:08;;;;;;;21.97;13.43;;;;;;;;;;4990998;28;20069;-61
2023/07/14 05:45:34;;;;;;;19.30;13.97;;;;;;;;;;4991040;28;20042;-61
2023/07/14 05:48:01;;;;;;;17.80;13.53;;;;;;;;;;4979259;28;20047;-61
2023/07/14 05:50:27;;;;;;;18.77;13.93;;;;;;;;;;4971633;28;20109;-61
2023/07/14 05:52:53;;;;;;;15.67;11.70;;;;;;;;;;4971220;28;20047;-61
2023/07/14 05:55:19;;;;;;;20.40;14.43;;;;;;;;;;4971963;28;20149;-61
2023/07/14 05:57:45;;;;;;;18.90;13.63;;;;;;;;;;4990490;28;20142;-61
2023/07/14 06:00:18;;;;;;;16.20;13.40;;;;;;;;;;4990787;28;20519;-61
2023/07/14 06:02:46;;;;;;;17.33;13.57;;;;;;;;;;4990267;28;20511;-61
2023/07/14 06:05:13;;;;;;;16.67;13.30;;;;;;;;;;4990684;28;20042;-61
2023/07/14 06:07:40;;;;;;;18.67;13.93;;;;;;;;;;4990457;28;20271;-61
2023/07/14 06:10:06;;;;;;;18.07;13.53;;;;;;;;;;4989559;28;20046;-61
2023/07/14 06:12:33;;;;;;;17.60;14.20;;;;;;;;;;4993760;28;20042;-61
2023/07/14 06:14:59;;;;;;;18.40;13.00;;;;;;;;;;4980390;28;20054;-61
2023/07/14 06:17:25;;;;;;;15.03;12.37;;;;;;;;;;4979606;28;20097;-61
2023/07/14 06:19:51;;;;;;;15.97;12.83;;;;;;;;;;5002596;28;20038;-61
2023/07/14 06:22:17;;;;;;;16.10;13.23;;;;;;;;;;5005711;28;20054;-61
2023/07/14 06:24:43;;;;;;;19.07;13.30;;;;;;;;;;4990276;28;20508;-62
2023/07/14 06:27:09;;;;;;;19.70;11.60;;;;;;;;;;4989746;28;20089;-62
2023/07/14 06:29:35;;;;;;;15.73;11.80;;;;;;;;;;4988767;28;20133;-61
2023/07/14 06:32:01;;;;;;;16.47;10.70;;;;;;;;;;4977968;28;20042;-61
2023/07/14 06:34:28;;;;;;;17.20;11.07;;;;;;;;;;4984461;28;20495;-61
2023/07/14 06:36:54;;;;;;;13.60;9.23;;;;;;;;;;4989644;28;20046;-62
2023/07/14 06:39:20;;;;;;;13.97;9.90;;;;;;;;;;4984073;28;20134;-61
2023/07/14 06:41:47;;;;;;;16.23;9.40;;;;;;;;;;4988408;28;20054;-60
2023/07/14 06:44:13;;;;;;;13.63;9.80;;;;;;;;;;4989884;28;20124;-62
2023/07/14 06:46:39;;;;;;;11.77;9.10;;;;;;;;;;4981946;28;20056;-62
2023/07/14 06:49:06;;;;;;;14.80;8.60;;;;;;;;;;4984826;28;20507;-62
2023/07/14 06:51:32;;;;;;;14.50;9.93;;;;;;;;;;4984613;28;20045;-61
2023/07/14 06:53:58;;;;;;;15.47;10.30;;;;;;;;;;4985616;28;20054;-61
2023/07/14 06:56:24;;;;;;;15.80;9.97;;;;;;;;;;4988877;28;20136;-62
2023/07/14 06:58:50;;;;;;;15.17;9.00;;;;;;;;;;4988646;28;20477;-61
2023/07/14 07:01:17;;;;;;;13.90;9.37;;;;;;;;;;4985469;28;20093;-61
2023/07/14 07:03:43;;;;;;;12.93;9.10;;;;;;;;;;4970353;28;20042;-61
2023/07/14 07:06:10;;;;;;;11.50;6.47;;;;;;;;;;4970529;28;20043;-61
2023/07/14 07:08:36;;;;;;;13.10;8.00;;;;;;;;;;4978816;28;20248;-61
2023/07/14 07:11:02;;;;;;;12.00;7.07;;;;;;;;;;4988932;28;20125;-61
2023/07/14 07:13:28;;;;;;;9.60;7.30;;;;;;;;;;4970530;28;20046;-61
2023/07/14 07:15:54;;;;;;;6.90;6.10;;;;;;;;;;4982952;28;20050;-61
2023/07/14 07:18:21;;;;;;;13.50;6.67;;;;;;;;;;4988350;28;20129;-61
2023/07/14 07:20:47;;;;;;;10.27;6.70;;;;;;;;;;4977726;28;20047;-61
2023/07/14 07:23:13;;;;;;;10.90;6.27;;;;;;;;;;4977917;28;20511;-61
2023/07/14 07:25:39;;;;;;;11.63;6.77;;;;;;;;;;4989425;28;20081;-61
2023/07/14 07:28:05;;;;;;;8.40;6.30;;;;;;;;;;4985711;28;20104;-61
2023/07/14 07:30:31;;;;;;;10.03;5.53;;;;;;;;;;4988498;28;20046;-61
2023/07/14 07:32:57;;;;;;;7.30;5.27;;;;;;;;;;4989398;28;20525;-61
2023/07/14 07:35:23;;;;;;;7.30;5.23;;;;;;;;;;4989666;28;20116;-61
2023/07/14 07:37:49;;;;;;;10.77;5.53;;;;;;;;;;4985467;28;20042;-61
2023/07/14 07:40:15;;;;;;;8.83;5.10;;;;;;;;;;4989467;28;20500;-60
2023/07/14 07:42:42;;;;;;;7.23;4.63;;;;;;;;;;4987730;28;20054;-61
2023/07/14 07:45:08;;;;;;;8.07;4.30;;;;;;;;;;4986917;28;20109;-61
2023/07/14 07:47:34;;;;;;;8.40;3.97;;;;;;;;;;4987082;28;20200;-61
2023/07/14 07:50:00;;;;;;;7.43;4.23;;;;;;;;;;4988553;28;21215;-62
2023/07/14 07:52:26;;;;;;;7.20;3.97;;;;;;;;;;4988308;28;20136;-61
2023/07/14 07:54:52;;;;;;;6.50;4.03;;;;;;;;;;4988001;28;20378;-61
2023/07/14 07:57:18;;;;;;;25.23;4.70;;;;;;;;;;4988674;28;20142;-61
2023/07/14 07:59:44;;;;;;;6.93;3.73;;;;;;;;;;4987586;28;20046;-61
2023/07/14 08:02:13;;;;;;;8.13;4.70;;;;;;;;;;4988299;28;20057;-60
2023/07/14 08:04:39;;;;;;;10.90;3.83;;;;;;;;;;4988329;28;20057;-61
2023/07/14 08:07:12;;;;;;;5.87;3.77;;;;;;;;;;4988478;28;20054;-61
2023/07/14 08:09:38;;;;;;;7.18;3.63;;;;;;;;;;4988737;28;20057;-61
2023/07/14 08:12:04;;;;;;;7.03;3.73;;;;;;;;;;4988586;28;20039;-61
2023/07/14 08:14:31;;;;;;;6.93;3.50;;;;;;;;;;4988555;28;20046;-61
2023/07/14 08:16:57;;;;;;;6.93;3.57;;;;;;;;;;4987329;28;20430;-61
2023/07/14 08:19:23;;;;;;;8.20;3.20;;;;;;;;;;4988679;28;20092;-61
2023/07/14 08:21:49;;;;;;;7.57;3.20;;;;;;;;;;4988531;28;20081;-61
2023/07/14 08:24:15;;;;;;;5.90;3.20;;;;;;;;;;4988834;28;20058;-61
2023/07/14 08:26:41;;;;;;;8.57;2.90;;;;;;;;;;4989876;28;20161;-61
2023/07/14 08:29:08;;;;;;;9.13;3.10;;;;;;;;;;4974607;28;20080;-61
2023/07/14 08:31:34;;;;;;;9.73;3.50;;;;;;;;;;4992348;28;20074;-61
2023/07/14 08:34:00;;;;;;;6.93;3.40;;;;;;;;;;4975158;28;20053;-61
2023/07/14 08:36:26;;;;;;;7.23;3.03;;;;;;;;;;4992508;28;20047;-61
2023/07/14 08:38:54;;;;;;;7.87;3.20;;;;;;;;;;4992275;28;20089;-61
2023/07/14 08:41:20;;;;;;;8.10;3.27;;;;;;;;;;4991831;28;20054;-61
2023/07/14 08:44:04;;;;;;;4.90;3.10;;;;;;;;;;4992122;28;20065;-61
2023/07/14 08:46:36;;;;;;;8.23;3.10;;;;;;;;;;4991981;28;20050;-61
2023/07/14 08:49:05;;;;;;;6.03;3.20;;;;;;;;;;4992477;28;20479;-61
2023/07/14 08:51:36;;;;;;;8.00;3.00;;;;;;;;;;4991957;28;20058;-61
2023/07/14 08:54:16;;;;;;;8.53;3.40;;;;;;;;;;4991641;28;20113;-61
2023/07/14 08:56:42;;;;;;;7.63;3.53;;;;;;;;;;4991207;28;20046;-62
2023/07/14 08:59:13;;;;;;;6.70;3.17;;;;;;;;;;4991847;28;20058;-62
2023/07/14 09:01:46;;;;;;;5.77;3.20;;;;;;;;;;4992181;28;20046;-62
2023/07/14 09:04:20;;;;;;;6.10;3.30;;;;;;;;;;4991661;28;20054;-62
2023/07/14 09:06:47;;;;;;;9.50;3.50;;;;;;;;;;4990644;28;20050;-61
2023/07/14 09:09:30;;;;;;;10.00;3.73;;;;;;;;;;4991937;28;20105;-61
2023/07/14 09:11:58;;;;;;;6.18;3.22;;;;;;;;;;4991901;28;20042;-62
2023/07/14 09:14:43;;;;;;;7.50;3.40;;;;;;;;;;4991776;28;20054;-59
2023/07/14 09:17:15;;;;;;;6.80;3.30;;;;;;;;;;4990811;28;20057;-60
2023/07/14 09:20:08;;;;;;;8.80;3.63;;;;;;;;;;4991659;28;20046;-60
2023/07/14 09:22:39;;;;;;;7.63;3.47;;;;;;;;;;4991404;28;20067;-61
2023/07/14 09:25:05;;;;;;;7.20;3.10;;;;;;;;;;4990701;28;20050;-60
2023/07/14 09:27:32;;;;;;;5.10;2.70;;;;;;;;;;4991245;28;20053;-61
2023/07/14 09:29:58;;;;;;;5.90;3.73;;;;;;;;;;4991253;28;20050;-61
2023/07/14 09:32:31;;;;;;;6.80;3.40;;;;;;;;;;4990626;28;20181;-61
2023/07/14 09:34:59;;;;;;;8.47;3.17;;;;;;;;;;4990927;28;20089;-60
2023/07/14 09:37:33;;;;;;;5.32;3.08;;;;;;;;;;4990784;28;20046;-61
2023/07/14 09:40:17;;;;;;;8.55;3.78;;;;;;;;;;4990908;28;20042;-60
2023/07/14 09:42:45;;;;;;;6.05;3.40;;;;;;;;;;4990783;28;20093;-61
2023/07/14 09:45:16;;;;;;;5.03;2.58;;;;;;;;;;4990727;28;20043;-60
2023/07/14 09:47:43;;;;;;;5.10;3.33;;;;;;;;;;4990291;28;20061;-61
2023/07/14 09:50:14;;;;;;;5.70;3.15;;;;;;;;;;4990783;28;20046;-61
2023/07/14 09:52:53;;;;;;;5.38;3.22;;;;;;;;;;4990750;28;20416;-61
2023/07/14 09:55:20;;;;;;;7.00;3.25;;;;;;;;;;4989992;28;20509;-61
2023/07/14 09:57:47;;;;;;;7.63;2.92;;;;;;;;;;4990656;28;20050;-61
2023/07/14 10:00:21;;;;;;;4.80;2.92;;;;;;;;;;4990528;28;20050;-61
2023/07/14 10:02:52;;;;;;;6.00;2.80;;;;;;;;;;4971347;28;20070;-61
2023/07/14 10:05:37;;;;;;;5.38;2.70;;;;;;;;;;4971571;28;20496;-60
2023/07/14 10:08:03;;;;;;;4.55;3.10;;;;;;;;;;4970763;28;20050;-61
2023/07/14 10:10:30;;;;;;;6.10;2.90;;;;;;;;;;4971423;28;20054;-61
2023/07/14 10:12:56;;;;;;;7.72;3.00;;;;;;;;;;4971310;28;20504;-61
2023/07/14 10:15:22;;;;;;;6.28;2.90;;;;;;;;;;4973906;28;20056;-61
2023/07/14 10:17:52;;;;;;;5.13;3.25;;;;;;;;;;4989731;28;20097;-60
2023/07/14 10:20:20;;;;;;;4.43;2.88;;;;;;;;;;4990736;28;20065;-60
2023/07/14 10:22:49;;;;;;;4.40;2.95;;;;;;;;;;4990231;28;20129;-61
2023/07/14 10:25:19;;;;;;;8.18;3.38;;;;;;;;;;4990359;28;20046;-60
2023/07/14 10:28:11;;;;;;;6.75;3.08;;;;;;;;;;4989853;28;20054;-61
2023/07/14 10:30:37;;;;;;;5.35;3.13;;;;;;;;;;4987366;28;20086;-61
2023/07/14 10:33:05;;;;;;;5.03;2.85;;;;;;;;;;4990061;28;20464;-61
2023/07/14 10:35:35;;;;;;;8.57;3.03;;;;;;;;;;4990169;28;20046;-61
2023/07/14 10:38:09;;;;;;;5.55;2.80;;;;;;;;;;4989684;28;20104;-60
2023/07/14 10:40:38;;;;;;;4.70;2.60;;;;;;;;;;4990503;28;20054;-60
2023/07/14 10:43:10;;;;;;;4.15;2.17;;;;;;;;;;4990071;28;20047;-61
2023/07/14 10:45:38;;;;;;;5.97;2.92;;;;;;;;;;4989914;28;20404;-61
2023/07/14 10:48:10;;;;;;;4.68;2.80;;;;;;;;;;4989674;28;20048;-61
2023/07/14 10:50:38;;;;;;;5.68;2.55;;;;;;;;;;4989747;28;20057;-60
2023/07/14 10:53:16;;;;;;;6.90;2.47;;;;;;;;;;4987470;28;20046;-60
2023/07/14 10:55:43;;;;;;;5.57;2.90;;;;;;;;;;4988177;28;20048;-61
2023/07/14 10:58:34;;;;;;;6.55;2.70;;;;;;;;;;4988509;28;20120;-60
2023/07/14 11:01:02;;;;;;;4.45;2.40;;;;;;;;;;4987158;28;20042;-60
2023/07/14 11:03:30;;;;;;;5.65;2.95;;;;;;;;;;4987852;28;20045;-61
2023/07/14 11:06:10;;;;;;;4.03;2.50;;;;;;;;;;4983392;28;20456;-61
2023/07/14 11:08:37;;;;;;;5.45;2.83;;;;;;;;;;4987515;28;20046;-61
2023/07/14 11:11:09;;;;;;;5.18;3.50;;;;;;;;;;4973745;28;20047;-60
2023/07/14 11:13:44;;;;;;;5.50;2.92;;;;;;;;;;4978577;28;20054;-61
2023/07/14 11:16:12;;;;;;;4.93;2.77;;;;;;;;;;4973646;28;20181;-60
2023/07/14 11:18:38;;;;;;;5.90;2.73;;;;;;;;;;4987483;28;20408;-61
2023/07/14 11:21:23;;;;;;;8.10;3.42;;;;;;;;;;4970338;28;20125;-60
2023/07/14 11:23:56;;;;;;;6.40;2.70;;;;;;;;;;4973987;28;20042;-61
2023/07/14 11:26:22;;;;;;;;;;;;;;;;;;4989240;28;20043;-61
2023/07/14 11:28:47;;;;;;;5.70;2.40;;;;;;;;;;4981228;28;19929;-60
2023/07/14 11:31:27;;;;;;;5.13;2.70;;;;;;;;;;4970768;28;20152;-61
2023/07/14 11:34:12;;;;;;;6.53;3.40;;;;;;;;;;4969121;28;20043;-60
2023/07/14 11:36:58;;;;;;;4.00;2.70;;;;;;;;;;4987637;28;20038;-60
2023/07/14 11:39:42;;;;;;;6.13;2.65;;;;;;;;;;4986082;28;20050;-60
2023/07/14 11:42:38;;;;;;;5.60;2.70;;;;;;;;;;4987736;28;20112;-61
2023/07/14 11:45:07;;;;;;;5.07;2.88;;;;;;;;;;4975888;28;20416;-60
2023/07/14 11:47:33;;;;;;;6.45;2.95;;;;;;;;;;4989477;28;20053;-60
2023/07/14 11:50:02;;;;;;;7.70;3.38;;;;;;;;;;4988683;28;20043;-60
2023/07/14 11:52:29;;;;;;;5.63;3.30;;;;;;;;;;4987444;28;20047;-61
2023/07/14 11:54:57;;;;;;;5.22;3.00;;;;;;;;;;4987256;28;20078;-60
2023/07/14 11:57:23;;;;;;;5.95;3.10;;;;;;;;;;4987641;28;20062;-61
2023/07/14 11:59:58;;;;;;;6.60;3.13;;;;;;;;;;4971825;28;20039;-61
2023/07/14 12:02:24;;;;;;;7.63;3.25;;;;;;;;;;4984661;28;20045;-61
2023/07/14 12:05:01;;;;;;;7.10;3.00;;;;;;;;;;4986925;28;20042;-61
2023/07/14 12:07:27;;;;;;;4.90;2.70;;;;;;;;;;4993490;28;20107;-61
2023/07/14 12:09:57;;;;;;;6.03;3.45;;;;;;;;;;4976243;28;20046;-61
2023/07/14 12:12:23;;;;;;;9.35;3.90;;;;;;;;;;4987753;28;20106;-60
2023/07/14 12:14:50;;;;;;;7.88;3.83;;;;;;;;;;4988202;28;20095;-61
2023/07/14 12:17:34;;;;;;;7.38;4.03;;;;;;;;;;4988890;28;20045;-61
2023/07/14 12:20:06;;;;;;;8.75;3.90;;;;;;;;;;4988755;28;20057;-60
2023/07/14 12:22:38;;;;;;;9.10;3.80;;;;;;;;;;4989164;28;20050;-60
2023/07/14 12:25:10;;;;;;;6.07;3.83;;;;;;;;;;4988786;28;20050;-61
2023/07/14 12:27:36;;;;;;;8.73;3.58;;;;;;;;;;4988942;28;20082;-61
2023/07/14 12:30:22;;;;;;;5.90;3.53;;;;;;;;;;4988226;28;20516;-61
2023/07/14 12:32:50;;;;;;;5.78;3.10;;;;;;;;;;4988651;28;20116;-61
2023/07/14 12:35:18;;;;;;;7.32;3.65;;;;;;;;;;4988643;28;20489;-61
2023/07/14 12:37:44;;;;;;;7.00;3.50;;;;;;;;;;4988707;28;20077;-61
2023/07/14 12:40:15;;;;;;;7.78;4.38;;;;;;;;;;4988621;28;20046;-61
2023/07/14 12:42:44;;;;;;;10.38;4.30;;;;;;;;;;4988819;28;20055;-61
2023/07/14 12:45:12;;;;;;;6.68;3.28;;;;;;;;;;4988609;28;20081;-60
2023/07/14 12:47:39;;;;;;;5.10;3.25;;;;;;;;;;4988780;28;20094;-60
2023/07/14 12:50:06;;;;;;;8.77;3.47;;;;;;;;;;4988266;28;20047;-61
2023/07/14 12:52:35;;;;;;;7.47;3.50;;;;;;;;;;4988991;28;20055;-60
2023/07/14 12:55:02;;;;;;;8.00;3.28;;;;;;;;;;4988617;28;20089;-61
2023/07/14 12:57:31;;;;;;;6.70;3.60;;;;;;;;;;4988206;28;20157;-61
2023/07/14 12:59:57;;;;;;;6.35;3.83;;;;;;;;;;4988232;28;20058;-61
2023/07/14 13:02:24;;;;;;;6.25;3.17;;;;;;;;;;4988842;28;20054;-61
2023/07/14 13:04:51;;;;;;;11.10;3.95;;;;;;;;;;4988835;28;20051;-61
2023/07/14 13:07:26;;;;;;;6.15;3.55;;;;;;;;;;4988434;28;20086;-61
2023/07/14 13:09:59;;;;;;;9.20;3.53;;;;;;;;;;4988494;28;20053;-60
2023/07/14 13:12:25;;;;;;;7.50;3.83;;;;;;;;;;4988486;28;20042;-61
2023/07/14 13:14:53;;;;;;;6.32;3.38;;;;;;;;;;4991577;28;20082;-61
2023/07/14 13:17:23;;;;;;;10.60;3.85;;;;;;;;;;4991979;28;20073;-60
2023/07/14 13:19:49;;;;;;;6.70;2.95;;;;;;;;;;4991985;28;20093;-61
2023/07/14 13:22:22;;;;;;;7.15;3.00;;;;;;;;;;4992405;28;20455;-61
2023/07/14 13:25:07;;;;;;;5.38;2.97;;;;;;;;;;4991515;28;20946;-61
2023/07/14 13:27:38;;;;;;;7.53;3.45;;;;;;;;;;4991680;28;20125;-61
2023/07/14 13:30:19;;;;;;;5.88;2.72;;;;;;;;;;4991752;28;20471;-60
2023/07/14 13:32:49;;;;;;;7.78;3.13;;;;;;;;;;4992059;28;20415;-60
2023/07/14 13:35:20;;;;;;;6.20;3.30;;;;;;;;;;4991930;28;20457;-61
2023/07/14 13:37:46;;;;;;;5.88;2.80;;;;;;;;;;4991891;28;20042;-60
2023/07/14 13:40:18;;;;;;;5.72;2.90;;;;;;;;;;4991161;28;20042;-60
2023/07/14 13:42:48;;;;;;;7.10;3.40;;;;;;;;;;4991404;28;20038;-61
2023/07/14 13:45:21;;;;;;;6.93;3.15;;;;;;;;;;4991686;28;20325;-60
2023/07/14 13:47:51;;;;;;;6.95;3.22;;;;;;;;;;4991009;28;20050;-61
2023/07/14 13:50:17;;;;;;;4.97;3.03;;;;;;;;;;4991254;28;20046;-61
2023/07/14 13:52:43;;;;;;;4.18;2.60;;;;;;;;;;4991361;28;20092;-60
2023/07/14 13:55:20;;;;;;;6.30;2.30;;;;;;;;;;4990579;28;20051;-61
2023/07/14 13:57:46;;;;;;;7.22;2.10;;;;;;;;;;4991080;28;20050;-61
2023/07/14 14:00:15;;;;;;;4.75;2.40;;;;;;;;;;4991063;28;20101;-60
2023/07/14 14:02:43;;;;;;;3.53;2.17;;;;;;;;;;4991226;28;20077;-61
2023/07/14 14:05:13;;;;;;;3.38;2.13;;;;;;;;;;4991008;28;20109;-60
2023/07/14 14:07:39;;;;;;;6.30;2.70;;;;;;;;;;4990963;28;20050;-61
2023/07/14 14:10:27;;;;;;;3.80;2.03;;;;;;;;;;4990651;28;20046;-61
2023/07/14 14:12:53;;;;;;;4.13;2.60;;;;;;;;;;4990829;28;20496;-61
2023/07/14 14:15:21;;;;;;;4.78;2.80;;;;;;;;;;4991126;28;20042;-60
2023/07/14 14:17:50;;;;;;;4.68;2.42;;;;;;;;;;4990669;28;20394;-60
2023/07/14 14:20:21;;;;;;;5.10;2.22;;;;;;;;;;4990183;28;20567;-61
2023/07/14 14:22:47;;;;;;;3.50;2.38;;;;;;;;;;4990872;28;20105;-61
2023/07/14 14:25:18;;;;;;;4.97;2.65;;;;;;;;;;4990367;28;20049;-61
2023/07/14 14:27:44;;;;;;;6.05;2.80;;;;;;;;;;4990367;28;20039;-61
2023/07/14 14:30:10;;;;;;;5.65;2.50;;;;;;;;;;4990589;28;20166;-61
2023/07/14 14:32:37;;;;;;;6.03;2.58;;;;;;;;;;4990712;28;20852;-61
2023/07/14 14:35:23;;;;;;;3.40;1.90;;;;;;;;;;4990380;28;20046;-61
2023/07/14 14:37:50;;;;;;;6.00;2.80;;;;;;;;;;4979927;28;20109;-61
2023/07/14 14:40:17;;;;;;;4.32;2.50;;;;;;;;;;4990452;28;20042;-61